Time;durP1;ratioP1;P1;durP2;ratioP2;P2;SDS_P1;SDS_P2;PMS_P1;PMS_P2;Temp;Humidity;BMP_temperature;BMP_pressure;BME280_temperature;BME280_humidity;BME280_pressure;Samples;Min_cycle;Max_cycle;Signal;HPM_P1;HPM_P2
2021/06/12 00:01:35;;;;;;;36.03;25.13;;;17.70;94.90;;;;;;5032665;28;20709;-90
2021/06/12 00:04:23;;;;;;;35.05;24.92;;;17.70;94.90;;;;;;5003000;28;20046;-91
2021/06/12 00:06:57;;;;;;;36.67;25.77;;;17.60;95.00;;;;;;5023805;28;20064;-90
2021/06/12 00:09:27;;;;;;;38.25;27.90;;;17.70;95.00;;;;;;5020528;28;20047;-89
2021/06/12 00:12:13;;;;;;;37.75;28.00;;;17.70;95.00;;;;;;4999938;28;20058;-90
2021/06/12 00:14:59;;;;;;;37.00;27.50;;;17.70;95.00;;;;;;5026186;28;20043;-90
2021/06/12 00:17:27;;;;;;;39.10;27.60;;;17.70;95.10;;;;;;5034092;28;20052;-89
2021/06/12 00:20:19;;;;;;;39.45;28.08;;;17.70;95.20;;;;;;5024886;28;20059;-90
2021/06/12 00:22:47;;;;;;;35.95;26.95;;;17.70;95.30;;;;;;5010806;28;20054;-90
2021/06/12 00:25:17;;;;;;;37.60;28.27;;;17.70;95.30;;;;;;4999620;28;20060;-92
2021/06/12 00:27:44;;;;;;;36.97;27.52;;;17.70;95.30;;;;;;4996594;28;20042;-89
2021/06/12 00:30:12;;;;;;;40.00;29.80;;;17.70;95.40;;;;;;4993973;28;20479;-89
2021/06/12 00:32:43;;;;;;;39.78;29.52;;;17.70;95.40;;;;;;5033373;28;20127;-89
2021/06/12 00:35:11;;;;;;;40.30;29.45;;;17.70;95.40;;;;;;4979040;28;20336;-90
2021/06/12 00:37:39;;;;;;;35.75;26.38;;;17.70;95.40;;;;;;5005910;28;20542;-90
2021/06/12 00:40:20;;;;;;;35.55;26.50;;;17.70;95.40;;;;;;5012286;28;20048;-89
2021/06/12 00:42:47;;;;;;;36.28;26.30;;;17.80;95.30;;;;;;5035237;28;20037;-90
2021/06/12 00:45:18;;;;;;;37.58;27.23;;;17.70;95.40;;;;;;5060738;28;20465;-90
2021/06/12 00:47:49;;;;;;;37.08;26.30;;;17.70;95.60;;;;;;5029977;28;20054;-90
2021/06/12 00:50:19;;;;;;;35.55;26.33;;;17.70;95.40;;;;;;5031879;28;20040;-90
2021/06/12 00:52:52;;;;;;;37.28;26.65;;;17.70;95.40;;;;;;5043674;28;20045;-89
2021/06/12 00:55:19;;;;;;;35.10;26.38;;;17.70;95.50;;;;;;5040300;28;20086;-89
2021/06/12 00:57:46;;;;;;;42.25;27.13;;;17.60;95.50;;;;;;5021163;28;20131;-90
2021/06/12 01:00:15;;;;;;;36.13;26.42;;;17.70;95.60;;;;;;5041801;28;20056;-90
2021/06/12 01:02:46;;;;;;;35.85;25.75;;;17.70;95.60;;;;;;5014105;28;20049;-90
2021/06/12 01:05:17;;;;;;;32.00;24.70;;;17.70;95.50;;;;;;5041122;28;20052;-90
2021/06/12 01:07:46;;;;;;;32.60;23.80;;;17.70;95.50;;;;;;5031131;28;20049;-88
2021/06/12 01:10:32;;;;;;;37.25;27.00;;;17.70;95.50;;;;;;5016527;28;20129;-90
2021/06/12 01:13:37;;;;;;;35.90;25.90;;;17.70;95.50;;;;;;5021822;28;20037;-89
2021/06/12 01:16:34;;;;;;;36.38;26.77;;;17.70;95.40;;;;;;5027738;28;20071;-89
2021/06/12 01:19:32;;;;;;;34.63;24.13;;;17.70;95.60;;;;;;4983270;28;20045;-89
2021/06/12 01:22:25;;;;;;;36.10;24.80;;;17.70;95.70;;;;;;5005593;28;20398;-89
2021/06/12 01:25:27;;;;;;;35.25;25.00;;;17.70;95.60;;;;;;5018752;28;20048;-89
2021/06/12 01:28:31;;;;;;;34.42;24.52;;;17.70;95.40;;;;;;4998373;28;20431;-90
2021/06/12 01:31:20;;;;;;;34.90;24.55;;;17.70;95.30;;;;;;4972912;28;20121;-88
2021/06/12 01:34:07;;;;;;;34.72;24.30;;;17.70;95.60;;;;;;4990245;28;20051;-90
2021/06/12 01:36:55;;;;;;;43.65;27.77;;;17.70;95.70;;;;;;4997414;28;20045;-90
2021/06/12 01:39:41;;;;;;;41.30;25.60;;;17.70;95.50;;;;;;5020954;28;20106;-92
2021/06/12 01:42:27;;;;;;;39.80;26.88;;;17.70;95.60;;;;;;4976595;28;20088;-90
2021/06/12 01:45:15;;;;;;;36.13;24.30;;;17.60;95.70;;;;;;5027919;28;20048;-89
2021/06/12 01:48:03;;;;;;;34.85;24.52;;;17.70;95.70;;;;;;5003059;28;20048;-89
2021/06/12 01:50:49;;;;;;;34.38;23.38;;;17.70;95.60;;;;;;5026084;28;20119;-89
2021/06/12 01:53:38;;;;;;;35.47;24.00;;;17.70;95.60;;;;;;5035985;28;20501;-90
2021/06/12 01:56:26;;;;;;;37.10;25.02;;;17.70;95.50;;;;;;5008189;28;20044;-89
2021/06/12 01:59:15;;;;;;;32.42;22.73;;;17.60;95.60;;;;;;4968695;28;20077;-90
2021/06/12 02:02:03;;;;;;;38.33;25.85;;;17.70;95.50;;;;;;5013960;28;20052;-89
2021/06/12 02:04:55;;;;;;;37.80;24.33;;;17.60;95.60;;;;;;5019112;28;20045;-90
2021/06/12 02:07:43;;;;;;;36.72;24.52;;;17.60;95.80;;;;;;5010286;28;20047;-90
2021/06/12 02:10:34;;;;;;;34.40;24.05;;;17.50;95.80;;;;;;4980287;28;20140;-89
2021/06/12 02:13:25;;;;;;;35.95;23.67;;;17.50;95.90;;;;;;4974559;28;20042;-90
2021/06/12 02:16:13;;;;;;;34.10;23.48;;;17.60;95.70;;;;;;5018890;28;20049;-89
2021/06/12 02:19:02;;;;;;;41.25;25.05;;;17.50;95.60;;;;;;4944361;28;20127;-89
2021/06/12 02:21:49;;;;;;;36.55;24.88;;;17.50;95.60;;;;;;5014710;28;20387;-93
2021/06/12 02:24:36;;;;;;;36.63;23.55;;;17.50;95.60;;;;;;4979306;28;20577;-90
2021/06/12 02:27:23;;;;;;;37.10;24.05;;;17.40;95.80;;;;;;4970946;28;20041;-90
2021/06/12 02:30:10;;;;;;;38.13;25.42;;;17.50;95.70;;;;;;4975459;28;20054;-89
2021/06/12 02:33:02;;;;;;;36.88;24.77;;;17.50;95.60;;;;;;5005298;28;20060;-90
2021/06/12 02:35:48;;;;;;;36.95;24.45;;;17.50;95.60;;;;;;4982648;28;20040;-95
2021/06/12 02:38:34;;;;;;;36.95;24.73;;;17.40;95.70;;;;;;5024454;28;20439;-90
2021/06/12 02:41:22;;;;;;;37.80;24.35;;;17.40;95.90;;;;;;4989353;28;20159;-89
2021/06/12 02:44:08;;;;;;;35.47;24.52;;;17.40;95.90;;;;;;5004650;28;20437;-91
2021/06/12 02:47:02;;;;;;;34.15;24.52;;;17.40;95.80;;;;;;4967551;28;20049;-90
2021/06/12 02:49:54;;;;;;;33.97;23.48;;;17.40;95.80;;;;;;4953358;28;20195;-89
2021/06/12 02:52:41;;;;;;;38.20;25.00;;;17.40;95.80;;;;;;4988299;28;20376;-91
2021/06/12 02:55:32;;;;;;;36.03;24.20;;;17.40;95.80;;;;;;5001510;28;20094;-90
2021/06/12 02:58:24;;;;;;;37.53;25.58;;;17.40;95.70;;;;;;4986355;28;20458;-89
2021/06/12 03:01:12;;;;;;;36.65;24.17;;;17.30;95.80;;;;;;5029286;28;20494;-90
2021/06/12 03:03:58;;;;;;;34.95;23.15;;;17.40;95.70;;;;;;4998983;28;20131;-89
2021/06/12 03:06:47;;;;;;;33.13;22.48;;;17.30;95.90;;;;;;5012410;28;20083;-89
2021/06/12 03:09:20;;;;;;;31.40;20.95;;;17.30;95.80;;;;;;5041334;28;20459;-89
2021/06/12 03:11:49;;;;;;;32.20;21.95;;;17.40;95.10;;;;;;5019442;28;20064;-87
2021/06/12 03:14:41;;;;;;;28.63;21.25;;;17.40;94.90;;;;;;5031190;28;20048;-89
2021/06/12 03:17:11;;;;;;;32.67;21.77;;;17.30;95.10;;;;;;4996380;28;20052;-90
2021/06/12 03:19:59;;;;;;;32.65;22.63;;;17.20;95.40;;;;;;5004228;28;20071;-90
2021/06/12 03:22:51;;;;;;;28.45;19.02;;;17.30;95.30;;;;;;5025848;28;20139;-90
2021/06/12 03:25:37;;;;;;;29.05;20.08;;;17.20;95.30;;;;;;5016870;28;20402;-89
2021/06/12 03:28:24;;;;;;;26.58;19.08;;;17.20;95.40;;;;;;4980118;28;20053;-90
2021/06/12 03:31:19;;;;;;;28.27;17.33;;;17.20;95.40;;;;;;4989378;28;20057;-93
2021/06/12 03:34:06;;;;;;;27.00;18.10;;;17.30;95.10;;;;;;5016167;28;20486;-90
2021/06/12 03:36:56;;;;;;;26.35;17.45;;;17.20;95.30;;;;;;5031249;28;20052;-89
2021/06/12 03:39:23;;;;;;;22.33;15.70;;;17.20;94.80;;;;;;5032252;28;20049;-90
2021/06/12 03:41:55;;;;;;;24.27;15.82;;;17.10;94.70;;;;;;5012002;28;20045;-95
2021/06/12 03:44:23;;;;;;;23.08;14.82;;;17.10;94.80;;;;;;5053701;28;20084;-90
2021/06/12 03:46:53;;;;;;;23.70;14.63;;;17.00;95.00;;;;;;5047458;28;20517;-90
2021/06/12 03:49:40;;;;;;;20.90;14.30;;;17.00;94.80;;;;;;5013918;28;20053;-89
2021/06/12 03:52:28;;;;;;;23.75;15.05;;;17.00;94.70;;;;;;5008053;28;20060;-90
2021/06/12 03:55:18;;;;;;;26.42;15.02;;;17.00;94.60;;;;;;4989274;28;20052;-89
2021/06/12 03:58:04;;;;;;;21.67;15.13;;;16.90;94.50;;;;;;5005111;28;20052;-90
2021/06/12 04:00:46;;;;;;;24.23;14.82;;;16.90;94.50;;;;;;4994192;28;20125;-89
2021/06/12 04:03:34;;;;;;;22.88;15.07;;;16.80;94.60;;;;;;4990607;28;20041;-90
2021/06/12 04:06:20;;;;;;;23.98;16.48;;;16.80;94.80;;;;;;5019318;28;20370;-89
2021/06/12 04:08:54;;;;;;;23.48;14.68;;;16.70;94.90;;;;;;5053581;28;20060;-90
2021/06/12 04:11:22;;;;;;;26.67;16.42;;;16.70;95.10;;;;;;5026293;28;20098;-89
2021/06/12 04:13:49;;;;;;;26.48;15.60;;;16.70;95.20;;;;;;5027376;28;20051;-90
2021/06/12 04:16:22;;;;;;;23.45;15.40;;;16.70;95.30;;;;;;4996583;28;20041;-90
2021/06/12 04:19:08;;;;;;;22.38;14.88;;;16.70;95.20;;;;;;5033034;28;20057;-89
2021/06/12 04:21:55;;;;;;;22.00;15.48;;;16.70;95.30;;;;;;5007866;28;20128;-89
2021/06/12 04:24:43;;;;;;;20.48;15.63;;;16.70;95.20;;;;;;5031106;28;20060;-91
2021/06/12 04:27:29;;;;;;;22.45;15.40;;;16.70;95.20;;;;;;5018809;28;20044;-90
2021/06/12 04:30:19;;;;;;;24.40;15.65;;;16.70;95.20;;;;;;4991319;28;20124;-89
2021/06/12 04:33:08;;;;;;;22.73;14.98;;;16.70;95.30;;;;;;5029240;28;20056;-91
2021/06/12 04:35:56;;;;;;;23.20;14.68;;;16.80;95.20;;;;;;4999213;28;20455;-89
2021/06/12 04:38:44;;;;;;;19.95;14.95;;;16.80;95.10;;;;;;5025619;28;20097;-89
2021/06/12 04:41:30;;;;;;;20.63;15.48;;;16.80;95.00;;;;;;5001974;28;20479;-90
2021/06/12 04:44:22;;;;;;;19.02;14.35;;;16.90;94.90;;;;;;4987786;28;20049;-89
2021/06/12 04:46:52;;;;;;;22.95;15.02;;;16.90;95.00;;;;;;5011555;28;20053;-89
2021/06/12 04:49:38;;;;;;;21.52;14.82;;;16.80;94.90;;;;;;4988468;28;20061;-89
2021/06/12 04:52:04;;;;;;;18.63;13.75;;;16.90;94.90;;;;;;5032774;28;20068;-90
2021/06/12 04:54:30;;;;;;;22.98;14.27;;;16.80;94.90;;;;;;5037345;28;20052;-89
2021/06/12 04:57:01;;;;;;;18.77;13.52;;;17.00;94.70;;;;;;5017371;28;20084;-89
2021/06/12 04:59:28;;;;;;;19.95;13.27;;;17.00;94.40;;;;;;5022950;28;20042;-89
2021/06/12 05:01:55;;;;;;;18.98;13.07;;;17.00;94.50;;;;;;5029022;28;20123;-89
2021/06/12 05:04:21;;;;;;;17.60;12.93;;;17.00;94.50;;;;;;5035628;28;20585;-89
2021/06/12 05:06:49;;;;;;;19.35;12.68;;;17.10;94.20;;;;;;4999733;28;20093;-90
2021/06/12 05:09:20;;;;;;;16.65;11.70;;;17.20;94.00;;;;;;5024494;28;20038;-88
2021/06/12 05:11:50;;;;;;;17.83;11.60;;;17.10;94.10;;;;;;4999816;28;20076;-89
2021/06/12 05:14:19;;;;;;;13.73;10.13;;;17.20;93.90;;;;;;5020533;28;20049;-90
2021/06/12 05:16:45;;;;;;;14.93;11.15;;;17.30;93.20;;;;;;4979476;28;20378;-89
2021/06/12 05:19:11;;;;;;;14.93;10.38;;;17.40;93.30;;;;;;4989184;28;20124;-89
2021/06/12 05:21:39;;;;;;;16.02;9.75;;;17.40;93.10;;;;;;5029310;28;20056;-90
2021/06/12 05:24:10;;;;;;;14.10;10.45;;;17.40;93.10;;;;;;5048791;28;20183;-91
2021/06/12 05:26:44;;;;;;;12.68;10.05;;;17.40;93.00;;;;;;5032863;28;20052;-89
2021/06/12 05:29:11;;;;;;;14.65;11.02;;;17.40;93.00;;;;;;5034005;28;20052;-89
2021/06/12 05:31:41;;;;;;;11.63;8.15;;;17.40;93.10;;;;;;5013466;28;20992;-90
2021/06/12 05:34:08;;;;;;;12.05;8.93;;;17.40;92.40;;;;;;5016776;28;20167;-90
2021/06/12 05:36:40;;;;;;;12.70;8.68;;;17.40;92.50;;;;;;4996757;28;20444;-89
2021/06/12 05:39:12;;;;;;;12.35;8.23;;;17.50;91.60;;;;;;4996300;28;20456;-89
2021/06/12 05:41:41;;;;;;;12.82;8.80;;;17.40;91.60;;;;;;5048802;28;20095;-90
2021/06/12 05:44:07;;;;;;;12.18;8.75;;;17.40;91.60;;;;;;5015083;28;21342;-89
2021/06/12 05:46:34;;;;;;;11.48;8.70;;;17.40;92.00;;;;;;4990494;28;20080;-89
2021/06/12 05:49:00;;;;;;;14.13;8.35;;;17.50;91.50;;;;;;5023608;28;20108;-89
2021/06/12 05:51:27;;;;;;;10.75;7.90;;;17.50;91.60;;;;;;4978490;28;20136;-89
2021/06/12 05:53:56;;;;;;;9.48;7.40;;;17.50;90.70;;;;;;5005623;28;20053;-94
2021/06/12 05:56:25;;;;;;;10.77;6.93;;;17.60;90.90;;;;;;5018190;28;20037;-90
2021/06/12 05:58:59;;;;;;;9.63;6.38;;;17.60;90.30;;;;;;5036218;28;20064;-90
2021/06/12 06:01:31;;;;;;;9.65;6.72;;;17.70;87.70;;;;;;5033132;28;20139;-89
2021/06/12 06:03:58;;;;;;;9.05;6.30;;;17.60;88.30;;;;;;5040644;28;20481;-90
2021/06/12 06:06:24;;;;;;;9.07;5.70;;;17.60;88.60;;;;;;5028906;28;20048;-89
2021/06/12 06:08:50;;;;;;;10.05;6.03;;;17.60;87.40;;;;;;5029284;28;20527;-89
2021/06/12 06:11:23;;;;;;;10.32;6.10;;;17.60;86.70;;;;;;5004775;28;20045;-91
2021/06/12 06:13:49;;;;;;;11.93;6.60;;;17.50;86.90;;;;;;5021525;28;20056;-90
2021/06/12 06:16:15;;;;;;;9.60;5.80;;;17.50;87.40;;;;;;5019873;28;20506;-89
2021/06/12 06:18:49;;;;;;;9.10;5.40;;;17.50;88.10;;;;;;4996751;28;20033;-90
2021/06/12 06:21:29;;;;;;;6.82;4.85;;;17.60;87.20;;;;;;4999568;28;20636;-90
2021/06/12 06:23:55;;;;;;;7.80;5.30;;;17.60;85.60;;;;;;5040889;28;20506;-90
2021/06/12 06:26:23;;;;;;;9.18;5.68;;;17.60;86.50;;;;;;4988167;28;20049;-90
2021/06/12 06:28:49;;;;;;;9.23;5.22;;;17.60;87.80;;;;;;5028758;28;20402;-91
2021/06/12 06:31:15;;;;;;;8.23;4.60;;;17.70;88.10;;;;;;5013022;28;20056;-89
2021/06/12 06:33:42;;;;;;;8.10;4.80;;;17.80;86.20;;;;;;5015516;28;20079;-89
2021/06/12 06:36:21;;;;;;;8.38;4.63;;;17.90;84.80;;;;;;4980062;28;20075;-89
2021/06/12 06:38:52;;;;;;;10.32;4.60;;;17.90;83.90;;;;;;5053973;28;20552;-90
2021/06/12 06:41:20;;;;;;;8.38;4.35;;;18.00;84.00;;;;;;5021294;28;20040;-90
2021/06/12 06:43:51;;;;;;;6.68;4.38;;;17.90;83.60;;;;;;5019251;28;20360;-90
2021/06/12 06:46:17;;;;;;;9.27;5.43;;;17.90;83.10;;;;;;5033127;28;20378;-89
2021/06/12 06:48:47;;;;;;;9.63;5.10;;;17.90;83.50;;;;;;5022277;28;20067;-90
2021/06/12 06:51:16;;;;;;;12.48;5.75;;;18.00;82.90;;;;;;4997221;28;20059;-90
2021/06/12 06:53:43;;;;;;;12.18;6.03;;;17.90;83.50;;;;;;5037575;28;20502;-90
2021/06/12 06:56:12;;;;;;;7.20;5.30;;;17.90;84.50;;;;;;5041495;28;20049;-89
2021/06/12 06:58:45;;;;;;;8.95;5.20;;;17.90;85.00;;;;;;5045562;28;20122;-89
2021/06/12 07:01:14;;;;;;;8.52;4.07;;;18.00;86.20;;;;;;5012550;28;20490;-91
2021/06/12 07:03:42;;;;;;;5.18;3.13;;;18.30;82.40;;;;;;5042388;28;20099;-90
2021/06/12 07:06:08;;;;;;;8.60;4.32;;;18.40;79.00;;;;;;5036360;28;20099;-88
2021/06/12 07:08:34;;;;;;;8.48;4.72;;;18.30;80.00;;;;;;5038295;28;20507;-91
2021/06/12 07:11:01;;;;;;;8.40;3.72;;;18.30;80.00;;;;;;5024446;28;20061;-90
2021/06/12 07:13:37;;;;;;;6.53;3.85;;;18.30;78.90;;;;;;5010911;28;20049;-89
2021/06/12 07:16:05;;;;;;;6.95;3.88;;;18.30;77.70;;;;;;5022326;28;20052;-90
2021/06/12 07:18:51;;;;;;;7.57;4.55;;;18.30;79.20;;;;;;5007828;28;20458;-91
2021/06/12 07:21:22;;;;;;;6.45;4.00;;;18.40;79.60;;;;;;5021457;28;20041;-90
2021/06/12 07:23:53;;;;;;;9.60;4.53;;;18.50;78.50;;;;;;5013342;28;20049;-90
2021/06/12 07:26:33;;;;;;;8.40;3.95;;;18.50;77.10;;;;;;5028724;28;20072;-91
2021/06/12 07:29:01;;;;;;;6.63;3.58;;;18.60;77.40;;;;;;4988421;28;20052;-91
2021/06/12 07:31:28;;;;;;;7.15;3.35;;;18.80;75.70;;;;;;5030186;28;20065;-94
2021/06/12 07:33:58;;;;;;;7.68;3.60;;;18.80;74.70;;;;;;4959272;28;20051;-94
2021/06/12 07:36:24;;;;;;;5.80;3.35;;;18.80;72.50;;;;;;5006676;28;20522;-93
2021/06/12 07:38:55;;;;;;;6.82;3.08;;;18.70;73.40;;;;;;5020763;28;20044;-94
2021/06/12 07:41:22;;;;;;;9.05;2.80;;;18.80;73.40;;;;;;4998037;28;20053;-93
2021/06/12 07:43:48;;;;;;;4.88;2.90;;;18.90;72.00;;;;;;4984045;28;20053;-91
2021/06/12 07:46:16;;;;;;;9.90;2.85;;;18.80;72.00;;;;;;4970089;28;20137;-92
2021/06/12 07:48:44;;;;;;;6.50;3.28;;;18.90;71.70;;;;;;4910443;28;20046;-91
2021/06/12 07:51:12;;;;;;;7.22;3.53;;;18.90;73.10;;;;;;4953065;28;20405;-91
2021/06/12 07:53:38;;;;;;;6.03;3.40;;;18.90;73.50;;;;;;5000933;28;20053;-91
2021/06/12 07:56:06;;;;;;;8.20;3.70;;;18.90;73.00;;;;;;4984631;28;20060;-92
2021/06/12 07:58:32;;;;;;;7.53;3.33;;;18.90;72.70;;;;;;5048569;28;20049;-95
2021/06/12 08:00:58;;;;;;;6.90;3.30;;;18.90;72.90;;;;;;5005690;28;20110;-94
2021/06/12 08:03:28;;;;;;;9.15;3.47;;;19.10;72.40;;;;;;5003228;28;20083;-94
2021/06/12 08:05:56;;;;;;;7.20;3.30;;;19.10;72.80;;;;;;5034664;28;20165;-96
2021/06/12 08:08:25;;;;;;;8.05;3.50;;;19.00;74.00;;;;;;5016551;28;20048;-95
2021/06/12 08:10:55;;;;;;;7.80;2.95;;;19.10;73.70;;;;;;5021858;28;20120;-95
2021/06/12 08:13:23;;;;;;;7.05;3.20;;;19.20;71.10;;;;;;5034470;28;20087;-95
2021/06/12 08:15:53;;;;;;;6.20;3.08;;;19.10;71.00;;;;;;5017900;28;20055;-95
2021/06/12 08:18:19;;;;;;;4.57;2.55;;;19.00;70.60;;;;;;5032606;28;20044;-94
2021/06/12 08:20:50;;;;;;;5.63;2.40;;;19.20;68.60;;;;;;5009263;28;20064;-94
2021/06/12 08:23:19;;;;;;;7.78;2.78;;;19.20;67.80;;;;;;5034491;28;20071;-95
2021/06/12 08:25:47;;;;;;;5.57;2.72;;;19.20;69.40;;;;;;5021303;28;20458;-94
2021/06/12 08:28:27;;;;;;;5.88;2.67;;;19.10;67.90;;;;;;5037257;28;20037;-95
2021/06/12 08:30:59;;;;;;;5.78;2.90;;;19.00;70.60;;;;;;5043281;28;20048;-93
2021/06/12 08:33:25;;;;;;;5.55;2.45;;;19.20;69.40;;;;;;5026618;28;20478;-96
2021/06/12 08:35:52;;;;;;;7.15;2.50;;;19.30;67.70;;;;;;5020515;28;20163;-96
2021/06/12 08:38:18;;;;;;;5.05;2.30;;;19.40;68.00;;;;;;5006835;28;20056;-92
2021/06/12 08:40:44;;;;;;;3.80;2.15;;;19.50;66.90;;;;;;5019454;28;20059;-93
2021/06/12 08:43:12;;;;;;;4.75;2.30;;;19.60;66.60;;;;;;5032340;28;20039;-94
2021/06/12 08:45:40;;;;;;;7.88;2.20;;;19.50;64.70;;;;;;5032890;28;20059;-95
2021/06/12 08:48:09;;;;;;;6.03;2.30;;;19.50;64.80;;;;;;5020744;28;20059;-95
2021/06/12 08:50:39;;;;;;;5.35;2.50;;;19.40;64.90;;;;;;5000208;28;20048;-95
2021/06/12 08:53:05;;;;;;;5.68;2.72;;;19.40;65.40;;;;;;5026741;28;20043;-94
2021/06/12 08:55:33;;;;;;;5.60;2.80;;;19.40;66.90;;;;;;5003518;28;20049;-95
2021/06/12 08:57:59;;;;;;;5.22;2.50;;;19.40;69.90;;;;;;5019965;28;20204;-95
2021/06/12 09:00:26;;;;;;;6.35;2.67;;;19.60;66.90;;;;;;5014601;28;20131;-94
2021/06/12 09:03:05;;;;;;;5.68;2.60;;;19.80;67.30;;;;;;5042370;28;20143;-95
2021/06/12 09:05:48;;;;;;;5.22;2.70;;;19.90;66.10;;;;;;5002162;28;20050;-96
2021/06/12 09:08:17;;;;;;;4.38;2.42;;;20.00;66.90;;;;;;5037195;28;20055;-94
2021/06/12 09:11:00;;;;;;;7.18;2.70;;;20.10;64.60;;;;;;5007037;28;20390;-93
2021/06/12 09:13:42;;;;;;;5.55;2.85;;;20.20;64.00;;;;;;5018029;28;20085;-94
2021/06/12 09:16:39;;;;;;;6.30;2.90;;;20.30;64.40;;;;;;5016598;28;20767;-93
2021/06/12 09:19:20;;;;;;;6.00;2.50;;;20.20;64.20;;;;;;5009199;28;20115;-95
2021/06/12 09:21:48;;;;;;;6.32;2.80;;;20.00;65.60;;;;;;5017802;28;20072;-94
2021/06/12 09:24:45;;;;;;;;;;;;;;;;;;;;;
2021/06/12 09:27:18;;;;;;;5.80;2.72;;;20.00;64.60;;;;;;4995314;28;20099;-93
2021/06/12 09:29:51;;;;;;;6.18;2.60;;;19.90;64.30;;;;;;5058888;28;20056;-95
2021/06/12 09:32:25;;;;;;;4.88;2.63;;;19.70;64.80;;;;;;5013274;28;20045;-93
2021/06/12 09:34:56;;;;;;;8.45;2.80;;;19.70;65.00;;;;;;5026152;28;20060;-92
2021/06/12 09:37:29;;;;;;;6.68;2.65;;;19.70;65.50;;;;;;5031519;28;20051;-94
2021/06/12 09:40:22;;;;;;;6.93;2.88;;;19.60;65.90;;;;;;5023477;28;20072;-96
2021/06/12 09:42:56;;;;;;;7.60;3.10;;;19.60;67.70;;;;;;5021347;28;20067;-94
2021/06/12 09:45:34;;;;;;;22.55;4.72;;;19.50;69.40;;;;;;5016212;28;20731;-95
2021/06/12 09:48:16;;;;;;;7.40;2.83;;;19.70;69.30;;;;;;5002400;28;20053;-95
2021/06/12 09:50:45;;;;;;;11.10;3.05;;;19.70;68.20;;;;;;4964660;28;20060;-94
2021/06/12 09:53:37;;;;;;;9.05;3.10;;;19.50;69.20;;;;;;4984040;28;20057;-95
2021/06/12 09:56:11;;;;;;;9.25;3.10;;;19.30;70.40;;;;;;4983699;28;20055;-93
2021/06/12 09:58:37;;;;;;;10.30;3.40;;;19.40;71.80;;;;;;4956501;28;20108;-95
2021/06/12 10:01:14;;;;;;;7.88;2.60;;;19.50;70.20;;;;;;4981854;28;20041;-95
2021/06/12 10:03:46;;;;;;;7.57;2.60;;;19.50;68.30;;;;;;5005240;28;20044;-96
2021/06/12 10:06:32;;;;;;;8.32;2.50;;;19.60;69.80;;;;;;5003187;28;20103;-95
2021/06/12 10:09:07;;;;;;;4.60;2.38;;;19.70;68.30;;;;;;5007290;28;20056;-96
2021/06/12 10:11:37;;;;;;;7.75;3.22;;;19.70;67.90;;;;;;5007026;28;20559;-94
2021/06/12 10:14:06;;;;;;;7.15;2.60;;;19.70;69.90;;;;;;5008659;28;20045;-93
2021/06/12 10:16:39;;;;;;;7.82;3.53;;;20.00;67.90;;;;;;5016072;28;20061;-95
2021/06/12 10:19:17;;;;;;;7.57;3.25;;;19.90;69.60;;;;;;5041523;28;20151;-96
2021/06/12 10:21:45;;;;;;;7.30;2.50;;;20.00;69.10;;;;;;4973116;28;20049;-94
2021/06/12 10:24:11;;;;;;;6.55;3.10;;;20.20;66.90;;;;;;4942740;28;20067;-95
2021/06/12 10:26:54;;;;;;;8.55;3.30;;;20.20;68.00;;;;;;4904329;28;20088;-96
2021/06/12 10:29:33;;;;;;;6.65;2.40;;;20.30;67.60;;;;;;4940280;28;20049;-95
2021/06/12 10:32:05;;;;;;;10.27;2.72;;;20.10;65.80;;;;;;4929718;28;20043;-96
2021/06/12 10:34:49;;;;;;;;;;;;;;;;;;;;;
2021/06/12 10:37:27;;;;;;;5.53;2.28;;;20.20;61.70;;;;;;4975247;28;20053;-95
2021/06/12 10:40:06;;;;;;;5.75;2.05;;;19.70;64.20;;;;;;4970806;28;20045;-96
2021/06/12 10:42:33;;;;;;;5.80;2.00;;;19.70;61.40;;;;;;4957420;28;20056;-94
2021/06/12 10:45:12;;;;;;;3.08;1.60;;;19.70;60.80;;;;;;4955416;28;20137;-95
2021/06/12 10:47:43;;;;;;;4.50;1.98;;;19.80;57.60;;;;;;4982192;28;20049;-92
2021/06/12 10:50:33;;;;;;;4.57;2.00;;;19.90;58.40;;;;;;5024673;28;20041;-93
2021/06/12 10:53:19;;;;;;;4.50;2.05;;;20.00;58.60;;;;;;4975436;28;20048;-96
2021/06/12 10:55:51;;;;;;;2.53;1.27;;;20.10;58.30;;;;;;4994232;28;20049;-95
2021/06/12 10:58:29;;;;;;;3.05;1.83;;;20.20;56.60;;;;;;5007234;28;20120;-95
2021/06/12 11:01:18;;;;;;;3.88;1.77;;;20.40;58.30;;;;;;5019629;28;20051;-95
2021/06/12 11:06:41;;;;;;;5.07;1.90;;;20.70;56.60;;;;;;4990414;28;20051;-92
2021/06/12 11:09:17;;;;;;;2.42;1.48;;;20.80;57.30;;;;;;4980801;28;20041;-93
2021/06/12 11:11:58;;;;;;;4.60;1.60;;;20.50;55.20;;;;;;5023399;28;20550;-94
2021/06/12 11:14:39;;;;;;;3.95;1.85;;;20.30;56.70;;;;;;4977786;28;20118;-94
2021/06/12 11:17:07;;;;;;;5.45;2.00;;;20.20;57.60;;;;;;4989372;28;20092;-92
2021/06/12 11:19:42;;;;;;;5.43;2.40;;;20.00;59.40;;;;;;4990902;28;21814;-94
2021/06/12 11:22:27;;;;;;;9.68;2.40;;;19.90;58.00;;;;;;5006423;28;20058;-94
2021/06/12 11:25:20;;;;;;;4.70;2.10;;;19.70;60.90;;;;;;4969042;28;20572;-94
2021/06/12 11:27:53;;;;;;;9.20;3.13;;;19.60;60.30;;;;;;4967739;28;20053;-92
2021/06/12 11:30:19;;;;;;;4.72;2.03;;;19.50;62.00;;;;;;4997157;28;20053;-93
2021/06/12 11:33:05;;;;;;;6.57;3.03;;;19.50;63.10;;;;;;5014206;28;20049;-95
2021/06/12 11:36:00;;;;;;;7.53;3.45;;;19.40;61.70;;;;;;5014964;28;20098;-93
2021/06/12 11:38:32;;;;;;;7.70;2.15;;;19.40;63.10;;;;;;4985737;28;20049;-93
2021/06/12 11:41:10;;;;;;;5.97;2.13;;;19.40;62.50;;;;;;5000537;28;20060;-94
2021/06/12 11:43:43;;;;;;;5.72;2.13;;;19.30;63.00;;;;;;4957981;28;20112;-94
2021/06/12 11:46:28;;;;;;;8.20;2.33;;;19.20;63.60;;;;;;4867642;29;20048;-93
2021/06/12 11:49:13;;;;;;;7.82;2.38;;;19.10;65.40;;;;;;4959645;27;189211;-93
2021/06/12 11:52:16;;;;;;;6.72;2.80;;;19.20;65.80;;;;;;4977432;27;138700;-93
2021/06/12 11:54:52;;;;;;;4.50;2.10;;;19.10;65.90;;;;;;4898162;28;20054;-91
2021/06/12 11:57:43;;;;;;;8.70;2.50;;;18.90;65.60;;;;;;5009530;27;975587;-93
2021/06/12 12:00:35;;;;;;;;;;;;;;;;;;;;;
2021/06/12 12:03:28;;;;;;;7.13;2.33;;;18.90;65.60;;;;;;4949759;27;20480;-93
2021/06/12 12:06:16;;;;;;;5.35;1.95;;;18.80;66.30;;;;;;4807498;29;20053;-94
2021/06/12 12:09:01;;;;;;;6.63;2.30;;;18.80;66.00;;;;;;5016130;27;20245;-94
2021/06/12 12:15:51;;;;;;;7.88;3.20;;;19.10;67.00;;;;;;4978704;27;109073;-95
2021/06/12 12:22:01;;;;;;;;;;;;;;;;;;;;;
2021/06/12 12:37:35;;;;;;;7.45;3.13;;;19.60;64.00;;;;;;4985628;27;157590;-94
2021/06/12 12:40:27;;;;;;;6.20;2.13;;;19.10;67.30;;;;;;4902959;28;20469;-92
2021/06/12 12:43:33;;;;;;;3.72;1.80;;;18.90;66.60;;;;;;4978676;27;20961;-96
2021/06/12 12:47:01;;;;;;;7.72;2.67;;;18.60;68.00;;;;;;4820304;29;47704;-95
2021/06/12 12:49:49;;;;;;;5.65;2.95;;;18.50;69.60;;;;;;5020162;27;20622;-95
2021/06/12 12:52:47;;;;;;;5.85;2.78;;;19.00;69.90;;;;;;4924417;28;20122;-93
2021/06/12 12:55:35;;;;;;;11.02;3.65;;;19.10;67.00;;;;;;4976407;27;20132;-92
2021/06/12 12:58:13;;;;;;;5.90;2.40;;;18.60;66.30;;;;;;4906494;28;20174;-95
2021/06/12 13:01:08;;;;;;;7.10;2.90;;;18.70;66.70;;;;;;5019943;27;20157;-93
2021/06/12 13:04:21;;;;;;;5.50;2.00;;;18.80;64.80;;;;;;4972982;27;178907;-93
2021/06/12 13:07:26;;;;;;;7.70;2.85;;;18.70;63.50;;;;;;4843341;29;228029;-94
2021/06/12 13:10:22;;;;;;;;;;;;;;;;;;;;;
2021/06/12 13:15:17;;;;;;;9.10;3.30;;;18.90;65.30;;;;;;5032314;27;182046;-93
2021/06/12 13:17:47;;;;;;;8.40;3.03;;;18.40;67.50;;;;;;4940816;28;20080;-94
2021/06/12 13:20:35;;;;;;;;;;;;;;;;;;;;;
2021/06/12 13:23:57;;;;;;;;;;;;;;;;;;;;;
2021/06/12 13:26:42;;;;;;;3.47;2.40;;;19.00;61.50;;;;;;4685140;28;10501736;-90
2021/06/12 13:29:31;;;;;;;5.68;2.72;;;19.00;61.20;;;;;;5000269;27;157625;-93
2021/06/12 13:32:20;;;;;;;;;;;;;;;;;;;;;
2021/06/12 13:34:57;;;;;;;9.23;3.53;;;19.10;60.90;;;;;;4795932;29;20050;-93
2021/06/12 13:37:43;;;;;;;6.80;3.15;;;19.10;62.80;;;;;;4960187;27;192426;-93
2021/06/12 13:40:13;;;;;;;9.55;2.83;;;19.10;59.90;;;;;;4899592;28;20108;-92
2021/06/12 13:42:58;;;;;;;12.57;3.45;;;18.90;59.90;;;;;;4995757;27;20602;-94
2021/06/12 13:45:53;;;;;;;;;;;;;;;;;;;;;
2021/06/12 13:48:50;;;;;;;;;;;;;;;;;;;;;
2021/06/12 13:51:27;;;;;;;10.25;3.97;;;18.70;60.30;;;;;;4985611;28;20053;-92
2021/06/12 13:54:25;;;;;;;;;;;;;;;;;;;;;
2021/06/12 13:56:57;;;;;;;10.80;4.25;;;18.60;61.50;;;;;;4859811;28;20065;-94
2021/06/12 13:59:26;;;;;;;11.04;4.16;;;18.60;61.90;;;;;;4690495;29;8186370;-91
2021/06/12 14:02:56;;;;;;;9.30;3.80;;;18.70;61.00;;;;;;4969501;27;20171;-92
2021/06/12 14:05:43;;;;;;;;;;;;;;;;;;;;;
2021/06/12 14:10:30;;;;;;;10.90;3.58;;;18.80;61.90;;;;;;4999615;27;20162;-91
2021/06/12 14:13:35;;;;;;;11.43;4.55;;;18.50;60.90;;;;;;4950052;27;118059;-92
2021/06/12 14:16:08;;;;;;;7.43;3.45;;;18.50;62.30;;;;;;4841060;29;20109;-93
2021/06/12 14:18:59;;;;;;;;;;;;;;;;;;;;;